createdAt,value
2022-11-01T00:00:00.050Z,0.00
2022-11-01T00:01:00.028Z,0.00
2022-11-01T00:02:00.109Z,0.00
2022-11-01T00:03:00.021Z,0.00
2022-11-01T00:03:59.985Z,0.00
2022-11-01T00:04:59.993Z,0.00
2022-11-01T00:05:59.989Z,0.00
2022-11-01T00:06:59.968Z,0.00
2022-11-01T00:08:00.142Z,0.00
2022-11-01T00:08:59.950Z,0.00
2022-11-01T00:09:59.917Z,0.00
2022-11-01T00:10:59.927Z,0.00
2022-11-01T00:11:59.909Z,0.00
2022-11-01T00:13:00.193Z,0.00
2022-11-01T00:13:59.893Z,0.00
2022-11-01T00:14:59.876Z,0.00
2022-11-01T00:15:59.852Z,0.00
2022-11-01T00:16:59.869Z,0.00
2022-11-01T00:17:59.842Z,0.00
2022-11-01T00:18:59.862Z,0.00
2022-11-01T00:19:59.867Z,0.00
2022-11-01T00:20:59.821Z,0.00
2022-11-01T00:21:59.787Z,0.00
2022-11-01T00:23:00.206Z,0.00
2022-11-01T00:23:59.792Z,0.00
2022-11-01T00:24:59.770Z,0.00
2022-11-01T00:25:59.766Z,0.00
2022-11-01T00:26:59.741Z,0.00
2022-11-01T00:27:59.947Z,0.00
2022-11-01T00:28:59.748Z,0.00
2022-11-01T00:29:59.729Z,0.00
2022-11-01T00:30:59.717Z,0.00
2022-11-01T00:31:59.679Z,0.00
2022-11-01T00:32:59.720Z,0.00
2022-11-01T00:33:59.672Z,0.00
2022-11-01T00:34:59.670Z,0.00
2022-11-01T00:35:59.646Z,0.00
2022-11-01T00:36:59.659Z,0.00
2022-11-01T00:38:00.007Z,0.00
2022-11-01T00:38:59.624Z,0.00
2022-11-01T00:39:59.599Z,0.00
2022-11-01T00:40:59.603Z,0.00
2022-11-01T00:41:59.580Z,0.00
2022-11-01T00:42:59.569Z,0.00
2022-11-01T00:43:59.552Z,0.00
2022-11-01T00:44:59.581Z,0.00
2022-11-01T00:45:59.537Z,0.00
2022-11-01T00:46:59.533Z,0.00
2022-11-01T00:47:59.744Z,0.00
2022-11-01T00:48:59.526Z,0.00
2022-11-01T00:49:59.507Z,0.00
2022-11-01T00:50:59.496Z,0.00
2022-11-01T00:51:59.467Z,0.00
2022-11-01T00:52:59.486Z,0.00
2022-11-01T00:53:59.439Z,0.00
2022-11-01T00:54:59.461Z,0.00
2022-11-01T00:55:59.448Z,0.00
2022-11-01T00:56:59.425Z,0.00
2022-11-01T00:57:59.703Z,0.00
2022-11-01T00:58:59.408Z,0.00
2022-11-01T01:00:00.595Z,0.00
2022-11-01T01:00:59.497Z,0.00
2022-11-01T01:01:59.492Z,0.00
2022-11-01T01:02:59.807Z,0.00
2022-11-01T01:03:59.332Z,0.00
2022-11-01T01:04:59.332Z,0.00
2022-11-01T01:05:59.315Z,0.00
2022-11-01T01:06:59.329Z,0.00
2022-11-01T01:07:59.305Z,0.00
2022-11-01T01:08:59.293Z,0.00
2022-11-01T01:09:59.268Z,0.00
2022-11-01T01:10:59.280Z,0.00
2022-11-01T01:11:59.270Z,0.00
2022-11-01T01:12:59.543Z,0.00
2022-11-01T01:13:59.246Z,0.00
2022-11-01T01:14:59.221Z,0.00
2022-11-01T01:15:59.193Z,0.00
2022-11-01T01:16:59.207Z,0.00
2022-11-01T01:17:59.516Z,0.00
2022-11-01T01:18:59.190Z,0.00
2022-11-01T01:19:59.183Z,0.00
2022-11-01T01:20:59.161Z,0.00
2022-11-01T01:21:59.169Z,0.00
2022-11-01T01:22:59.164Z,0.00
2022-11-01T01:23:59.166Z,0.00
2022-11-01T01:24:59.111Z,0.00
2022-11-01T01:25:59.106Z,0.00
2022-11-01T01:26:59.090Z,0.00
2022-11-01T01:27:59.238Z,0.00
2022-11-01T01:28:59.081Z,0.00
2022-11-01T01:29:59.060Z,0.00
2022-11-01T01:30:59.063Z,0.00
2022-11-01T01:31:59.049Z,0.00
2022-11-01T01:32:59.049Z,0.00
2022-11-01T01:33:59.039Z,0.00
2022-11-01T01:34:59.021Z,0.00
2022-11-01T01:35:59.024Z,0.00
2022-11-01T01:36:58.998Z,0.00
2022-11-01T01:37:59.171Z,0.00
2022-11-01T01:38:58.963Z,0.00
2022-11-01T01:39:59.000Z,0.00
2022-11-01T01:40:58.927Z,0.00
2022-11-01T01:41:58.946Z,0.00
2022-11-01T01:42:58.917Z,0.00
2022-11-01T01:43:58.912Z,0.00
2022-11-01T01:44:58.888Z,0.00
2022-11-01T01:45:58.933Z,0.00
2022-11-01T01:46:58.863Z,0.00
2022-11-01T01:47:59.073Z,0.00
2022-11-01T01:48:58.855Z,0.00
2022-11-01T01:49:58.837Z,0.00
2022-11-01T01:50:58.838Z,0.00
2022-11-01T01:51:58.847Z,0.00
2022-11-01T01:52:59.093Z,0.00
2022-11-01T01:53:58.817Z,0.00
2022-11-01T01:54:58.785Z,0.00
2022-11-01T01:55:58.884Z,0.00
2022-11-01T01:56:58.752Z,0.00
2022-11-01T01:57:58.772Z,0.00
2022-11-01T01:58:58.746Z,0.00
2022-11-01T01:59:58.739Z,0.00
2022-11-01T02:00:58.773Z,0.00
2022-11-01T02:01:58.841Z,0.00
2022-11-01T02:02:58.941Z,0.00
2022-11-01T02:03:58.696Z,0.00
2022-11-01T02:04:58.666Z,0.00
2022-11-01T02:05:58.675Z,0.00
2022-11-01T02:06:58.649Z,0.00
2022-11-01T02:07:58.877Z,0.00
2022-11-01T02:08:58.629Z,0.00
2022-11-01T02:09:58.642Z,0.00
2022-11-01T02:10:58.607Z,0.00
2022-11-01T02:11:58.607Z,0.00
2022-11-01T02:12:58.582Z,0.00
2022-11-01T02:13:58.581Z,0.00
2022-11-01T02:14:58.589Z,0.00
2022-11-01T02:15:58.562Z,0.00
2022-11-01T02:16:58.541Z,0.00
2022-11-01T02:18:04.266Z,0.00
2022-11-01T02:18:58.521Z,0.00
2022-11-01T02:19:58.522Z,0.00
2022-11-01T02:20:58.580Z,0.00
2022-11-01T02:21:58.511Z,0.00
2022-11-01T02:22:58.625Z,0.00
2022-11-01T02:23:58.500Z,0.00
2022-11-01T02:24:58.469Z,0.00
2022-11-01T02:25:58.444Z,0.00
2022-11-01T02:26:58.436Z,0.00
2022-11-01T02:27:58.450Z,0.00
2022-11-01T02:29:01.773Z,0.00
2022-11-01T02:29:58.449Z,0.00
2022-11-01T02:30:58.441Z,0.00
2022-11-01T02:31:58.407Z,0.00
2022-11-01T02:32:58.475Z,0.00
2022-11-01T02:33:58.399Z,0.00
2022-11-01T02:34:58.352Z,0.00
2022-11-01T02:35:58.342Z,0.00
2022-11-01T02:36:58.340Z,0.00
2022-11-01T02:37:58.320Z,0.00
2022-11-01T02:38:58.380Z,0.00
2022-11-01T02:39:58.300Z,0.00
2022-11-01T02:40:58.280Z,0.00
2022-11-01T02:41:58.301Z,0.00
2022-11-01T02:42:58.543Z,0.00
2022-11-01T02:43:58.266Z,0.00
2022-11-01T02:44:58.992Z,0.00
2022-11-01T02:45:58.304Z,0.00
2022-11-01T02:46:58.241Z,0.00
2022-11-01T02:47:58.220Z,0.00
2022-11-01T02:48:58.227Z,0.00
2022-11-01T02:49:58.211Z,0.00
2022-11-01T02:50:58.171Z,0.00
2022-11-01T02:51:58.166Z,0.00
2022-11-01T02:52:58.279Z,0.00
2022-11-01T02:53:58.147Z,0.00
2022-11-01T02:54:58.122Z,0.00
2022-11-01T02:55:58.123Z,0.00
2022-11-01T02:56:58.108Z,0.00
2022-11-01T02:57:58.098Z,0.00
2022-11-01T02:58:58.210Z,0.00
2022-11-01T02:59:58.095Z,0.00
2022-11-01T03:00:58.103Z,0.00
2022-11-01T03:01:58.187Z,0.00
2022-11-01T03:02:58.040Z,0.00
2022-11-01T03:03:58.036Z,0.00
2022-11-01T03:04:58.051Z,0.00
2022-11-01T03:05:58.013Z,0.00
2022-11-01T03:06:58.026Z,0.00
2022-11-01T03:07:58.012Z,0.00
2022-11-01T03:08:58.002Z,0.00
2022-11-01T03:09:57.970Z,0.00
2022-11-01T03:10:57.984Z,0.00
2022-11-01T03:11:57.974Z,0.00
2022-11-01T03:12:57.920Z,0.00
2022-11-01T03:13:57.924Z,0.00
2022-11-01T03:14:57.913Z,0.00
2022-11-01T03:15:57.926Z,0.00
2022-11-01T03:16:57.901Z,0.00
2022-11-01T03:17:57.890Z,0.00
2022-11-01T03:18:59.421Z,0.00
2022-11-01T03:19:57.870Z,0.00
2022-11-01T03:20:57.857Z,0.00
2022-11-01T03:21:57.836Z,0.00
2022-11-01T03:22:57.822Z,0.00
2022-11-01T03:23:57.819Z,0.00
2022-11-01T03:24:57.815Z,0.00
2022-11-01T03:25:57.806Z,0.00
2022-11-01T03:26:57.791Z,0.00
2022-11-01T03:27:57.793Z,0.00
2022-11-01T03:28:57.746Z,0.00
2022-11-01T03:29:57.749Z,0.00
2022-11-01T03:30:57.734Z,0.00
2022-11-01T03:31:57.747Z,0.00
2022-11-01T03:32:57.710Z,0.00
2022-11-01T03:33:57.706Z,0.00
2022-11-01T03:34:57.692Z,0.00
2022-11-01T03:35:57.706Z,0.00
2022-11-01T03:36:57.696Z,0.00
2022-11-01T03:37:57.667Z,0.00
2022-11-01T03:38:57.650Z,0.00
2022-11-01T03:39:57.648Z,0.00
2022-11-01T03:40:57.617Z,0.00
2022-11-01T03:41:57.647Z,0.00
2022-11-01T03:42:57.615Z,0.00
2022-11-01T03:43:57.602Z,0.00
2022-11-01T03:44:57.583Z,0.00
2022-11-01T03:45:57.587Z,0.00
2022-11-01T03:46:57.580Z,0.00
2022-11-01T03:47:57.583Z,0.00
2022-11-01T03:48:57.544Z,0.00
2022-11-01T03:49:57.534Z,0.00
2022-11-01T03:50:57.519Z,0.00
2022-11-01T03:51:57.508Z,0.00
2022-11-01T03:52:57.530Z,0.00
2022-11-01T03:53:57.504Z,0.00
2022-11-01T03:54:57.472Z,0.00
2022-11-01T03:55:57.471Z,0.00
2022-11-01T03:56:57.450Z,0.00
2022-11-01T03:57:57.441Z,0.00
2022-11-01T03:58:57.462Z,0.00
2022-11-01T03:59:57.427Z,0.00
2022-11-01T04:00:57.475Z,0.00
2022-11-01T04:01:57.642Z,0.00
2022-11-01T04:02:57.437Z,0.00
2022-11-01T04:03:57.394Z,0.00
2022-11-01T04:04:57.381Z,0.00
2022-11-01T04:05:57.355Z,0.00
2022-11-01T04:06:57.362Z,0.00
2022-11-01T04:07:57.335Z,0.00
2022-11-01T04:08:57.327Z,0.00
2022-11-01T04:09:57.351Z,0.00
2022-11-01T04:10:57.329Z,0.00
2022-11-01T04:11:57.315Z,0.00
2022-11-01T04:12:57.285Z,0.00
2022-11-01T04:13:57.264Z,0.00
2022-11-01T04:14:57.269Z,0.00
2022-11-01T04:15:57.248Z,0.00
2022-11-01T04:16:57.340Z,0.00
2022-11-01T04:17:57.229Z,0.00
2022-11-01T04:18:57.211Z,0.00
2022-11-01T04:19:57.236Z,0.00
2022-11-01T04:20:57.179Z,0.00
2022-11-01T04:21:57.197Z,0.00
2022-11-01T04:22:57.181Z,0.00
2022-11-01T04:23:57.165Z,0.00
2022-11-01T04:24:57.150Z,0.00
2022-11-01T04:25:57.142Z,0.00
2022-11-01T04:26:57.153Z,0.00
2022-11-01T04:27:57.127Z,0.00
2022-11-01T04:28:57.381Z,0.00
2022-11-01T04:29:57.096Z,0.00
2022-11-01T04:30:57.082Z,0.00
2022-11-01T04:31:57.086Z,0.00
2022-11-01T04:32:57.075Z,0.00
2022-11-01T04:33:57.071Z,0.00
2022-11-01T04:34:57.084Z,0.00
2022-11-01T04:35:57.041Z,0.00
2022-11-01T04:36:57.043Z,0.00
2022-11-01T04:37:57.009Z,0.00
2022-11-01T04:38:56.996Z,0.00
2022-11-01T04:39:56.994Z,0.00
2022-11-01T04:40:56.976Z,0.00
2022-11-01T04:41:56.978Z,0.00
2022-11-01T04:42:56.971Z,0.00
2022-11-01T04:43:56.999Z,0.00
2022-11-01T04:44:56.926Z,0.00
2022-11-01T04:45:56.926Z,0.00
2022-11-01T04:46:56.903Z,0.00
2022-11-01T04:47:56.901Z,0.00
2022-11-01T04:48:56.924Z,0.00
2022-11-01T04:49:56.884Z,0.00
2022-11-01T04:50:56.890Z,0.00
2022-11-01T04:51:56.864Z,0.00
2022-11-01T04:52:56.871Z,0.00
2022-11-01T04:53:56.865Z,0.00
2022-11-01T04:54:56.814Z,0.00
2022-11-01T04:55:56.823Z,0.00
2022-11-01T04:56:56.822Z,0.00
2022-11-01T04:57:56.805Z,0.00
2022-11-01T04:58:56.826Z,0.00
2022-11-01T04:59:56.771Z,0.00
2022-11-01T05:00:56.812Z,0.00
2022-11-01T05:01:56.776Z,0.00
2022-11-01T05:02:56.725Z,0.00
2022-11-01T05:03:56.762Z,0.00
2022-11-01T05:04:56.701Z,0.00
2022-11-01T05:05:56.699Z,0.00
2022-11-01T05:06:56.689Z,0.00
2022-11-01T05:07:56.707Z,0.00
2022-11-01T05:08:56.668Z,0.00
2022-11-01T05:09:56.676Z,0.00
2022-11-01T05:10:56.657Z,0.00
2022-11-01T05:11:56.680Z,0.00
2022-11-01T05:12:56.622Z,0.00
2022-11-01T05:13:56.643Z,0.00
2022-11-01T05:14:57.033Z,0.00
2022-11-01T05:16:18.437Z,0.00
2022-11-01T05:16:56.581Z,0.00
2022-11-01T05:17:56.590Z,0.00
2022-11-01T05:18:56.547Z,0.00
2022-11-01T05:19:56.582Z,0.00
2022-11-01T05:20:56.527Z,0.00
2022-11-01T05:21:56.521Z,0.00
2022-11-01T05:22:56.536Z,0.00
2022-11-01T05:23:56.512Z,0.00
2022-11-01T05:24:56.516Z,0.00
2022-11-01T05:25:56.537Z,0.00
2022-11-01T05:26:56.476Z,0.00
2022-11-01T05:27:56.476Z,0.00
2022-11-01T05:28:56.447Z,0.00
2022-11-01T05:29:56.461Z,0.00
2022-11-01T05:30:56.448Z,0.00
2022-11-01T05:31:56.448Z,0.00
2022-11-01T05:32:56.424Z,0.00
2022-11-01T05:33:56.404Z,0.00
2022-11-01T05:34:56.384Z,0.00
2022-11-01T05:35:56.386Z,0.00
2022-11-01T05:36:56.403Z,0.00
2022-11-01T05:37:56.353Z,0.00
2022-11-01T05:38:56.391Z,0.00
2022-11-01T05:39:56.345Z,0.00
2022-11-01T05:40:56.361Z,0.00
2022-11-01T05:41:59.845Z,0.00
2022-11-01T05:42:56.321Z,0.00
2022-11-01T05:43:56.278Z,0.00
2022-11-01T05:44:56.294Z,0.00
2022-11-01T05:45:56.283Z,0.00
2022-11-01T05:46:56.275Z,0.00
2022-11-01T05:47:56.236Z,0.00
2022-11-01T05:48:56.270Z,0.00
2022-11-01T05:49:56.218Z,0.00
2022-11-01T05:50:56.214Z,0.00
2022-11-01T05:51:56.230Z,0.00
2022-11-01T05:52:56.215Z,0.00
2022-11-01T05:53:56.181Z,0.00
2022-11-01T05:54:56.180Z,0.00
2022-11-01T05:55:56.146Z,0.00
2022-11-01T05:56:56.165Z,0.00
2022-11-01T05:57:56.182Z,0.00
2022-11-01T05:58:56.098Z,1.00
2022-11-01T05:59:56.053Z,1.00
2022-11-01T06:00:56.056Z,1.00
2022-11-01T06:01:56.167Z,0.00
2022-11-01T06:02:56.117Z,0.00
2022-11-01T06:03:56.026Z,2.00
2022-11-01T06:04:59.108Z,1.00
2022-11-01T06:05:56.009Z,1.00
2022-11-01T06:06:55.996Z,2.00
2022-11-01T06:07:55.998Z,2.00
2022-11-01T06:08:55.978Z,1.00
2022-11-01T06:09:55.956Z,1.00
2022-11-01T06:10:55.941Z,3.00
2022-11-01T06:11:55.925Z,4.00
2022-11-01T06:12:55.916Z,8.00
2022-11-01T06:13:55.929Z,8.00
2022-11-01T06:14:55.903Z,9.00
2022-11-01T06:15:55.880Z,5.00
2022-11-01T06:16:55.882Z,7.00
2022-11-01T06:17:55.871Z,10.00
2022-11-01T06:18:55.867Z,14.00
2022-11-01T06:19:55.837Z,17.00
2022-11-01T06:20:55.852Z,19.00
2022-11-01T06:21:55.812Z,22.00
2022-11-01T06:22:55.821Z,18.00
2022-11-01T06:23:55.820Z,15.00
2022-11-01T06:24:55.798Z,15.00
2022-11-01T06:25:55.789Z,15.00
2022-11-01T06:26:55.822Z,9.00
2022-11-01T06:27:55.762Z,9.00
2022-11-01T06:28:55.764Z,15.00
2022-11-01T06:29:55.767Z,11.00
2022-11-01T06:30:55.768Z,11.00
2022-11-01T06:31:55.719Z,10.00
2022-11-01T06:32:55.726Z,14.00
2022-11-01T06:33:55.693Z,21.00
2022-11-01T06:34:55.701Z,28.00
2022-11-01T06:35:55.668Z,36.00
2022-11-01T06:36:55.663Z,47.00
2022-11-01T06:37:55.643Z,52.00
2022-11-01T06:38:55.646Z,65.00
2022-11-01T06:39:55.649Z,78.00
2022-11-01T06:40:55.646Z,89.00
2022-11-01T06:41:55.596Z,82.00
2022-11-01T06:42:55.606Z,93.00
2022-11-01T06:43:55.651Z,123.00
2022-11-01T06:44:55.594Z,134.00
2022-11-01T06:45:55.569Z,157.00
2022-11-01T06:46:55.578Z,187.00
2022-11-01T06:47:55.546Z,191.00
2022-11-01T06:48:55.558Z,237.00
2022-11-01T06:49:55.571Z,240.00
2022-11-01T06:50:55.517Z,254.00
2022-11-01T06:51:55.519Z,262.00
2022-11-01T06:52:55.534Z,276.00
2022-11-01T06:53:55.545Z,283.00
2022-11-01T06:54:55.494Z,294.00
2022-11-01T06:55:55.488Z,304.00
2022-11-01T06:56:55.572Z,310.00
2022-11-01T06:57:55.465Z,318.00
2022-11-01T06:58:55.435Z,327.00
2022-11-01T06:59:55.493Z,330.00
2022-11-01T07:00:55.537Z,335.00
2022-11-01T07:01:55.567Z,340.00
2022-11-01T07:02:55.502Z,348.00
2022-11-01T07:03:55.401Z,355.00
2022-11-01T07:04:55.351Z,363.00
2022-11-01T07:05:55.378Z,371.00
2022-11-01T07:06:55.345Z,376.00
2022-11-01T07:07:55.319Z,383.00
2022-11-01T07:08:55.324Z,393.00
2022-11-01T07:09:55.312Z,401.00
2022-11-01T07:10:55.299Z,409.00
2022-11-01T07:11:55.345Z,416.00
2022-11-01T07:12:55.283Z,422.00
2022-11-01T07:13:55.315Z,430.00
2022-11-01T07:14:55.288Z,438.00
2022-11-01T07:15:55.311Z,442.00
2022-11-01T07:16:55.261Z,453.00
2022-11-01T07:17:55.221Z,459.00
2022-11-01T07:18:55.232Z,460.00
2022-11-01T07:19:56.412Z,465.00
2022-11-01T07:20:55.195Z,472.00
2022-11-01T07:21:55.183Z,478.00
2022-11-01T07:22:55.166Z,482.00
2022-11-01T07:23:55.160Z,486.00
2022-11-01T07:24:55.165Z,489.00
2022-11-01T07:25:55.133Z,493.00
2022-11-01T07:26:55.131Z,496.00
2022-11-01T07:27:55.133Z,501.00
2022-11-01T07:28:55.160Z,505.00
2022-11-01T07:29:55.124Z,505.00
2022-11-01T07:30:55.168Z,510.00
2022-11-01T07:31:55.069Z,514.00
2022-11-01T07:32:55.077Z,522.00
2022-11-01T07:33:55.378Z,534.00
2022-11-01T07:34:55.359Z,543.00
2022-11-01T07:35:55.066Z,548.00
2022-11-01T07:36:55.029Z,556.00
2022-11-01T07:37:55.169Z,563.00
2022-11-01T07:38:55.081Z,570.00
2022-11-01T07:39:55.044Z,577.00
2022-11-01T07:40:54.997Z,584.00
2022-11-01T07:41:54.993Z,593.00
2022-11-01T07:42:54.989Z,607.00
2022-11-01T07:43:55.084Z,623.00
2022-11-01T07:44:54.940Z,639.00
2022-11-01T07:45:54.913Z,647.00
2022-11-01T07:46:54.919Z,666.00
2022-11-01T07:47:54.917Z,702.00
2022-11-01T07:48:55.187Z,754.00
2022-11-01T07:49:54.872Z,755.00
2022-11-01T07:50:54.918Z,762.00
2022-11-01T07:51:58.911Z,809.00
2022-11-01T07:52:54.938Z,820.00
2022-11-01T07:53:56.169Z,848.00
2022-11-01T07:54:54.811Z,884.00
2022-11-01T07:55:54.827Z,920.00
2022-11-01T07:56:54.809Z,968.00
2022-11-01T07:57:54.804Z,1061.00
2022-11-01T07:58:55.854Z,1110.00
2022-11-01T07:59:54.801Z,905.00
2022-11-01T08:00:54.809Z,1082.00
2022-11-01T08:01:54.897Z,1420.00
2022-11-01T08:02:54.720Z,1473.00
2022-11-01T08:03:56.530Z,1483.00
2022-11-01T08:04:54.720Z,1503.00
2022-11-01T08:05:54.714Z,1550.00
2022-11-01T08:06:55.124Z,1549.00
2022-11-01T08:07:54.702Z,1553.00
2022-11-01T08:08:54.701Z,1592.00
2022-11-01T08:09:54.673Z,1592.00
2022-11-01T08:10:54.662Z,1637.00
2022-11-01T08:11:54.626Z,1644.00
2022-11-01T08:12:54.667Z,1683.00
2022-11-01T08:13:57.847Z,1715.00
2022-11-01T08:14:54.688Z,1761.00
2022-11-01T08:15:54.600Z,1797.00
2022-11-01T08:16:54.614Z,1827.00
2022-11-01T08:17:54.614Z,1824.00
2022-11-01T08:18:54.621Z,1789.00
2022-11-01T08:19:54.543Z,1797.00
2022-11-01T08:20:54.585Z,1806.00
2022-11-01T08:21:54.517Z,1833.00
2022-11-01T08:22:54.519Z,1841.00
2022-11-01T08:23:54.489Z,1864.00
2022-11-01T08:24:54.515Z,1870.00
2022-11-01T08:25:54.482Z,1909.00
2022-11-01T08:26:54.472Z,1907.00
2022-11-01T08:27:54.451Z,1904.00
2022-11-01T08:28:54.974Z,1929.00
2022-11-01T08:29:54.457Z,1952.00
2022-11-01T08:30:54.431Z,1952.00
2022-11-01T08:31:54.425Z,2002.00
2022-11-01T08:32:54.413Z,1969.00
2022-11-01T08:33:54.395Z,2031.00
2022-11-01T08:34:54.393Z,2000.00
2022-11-01T08:35:54.362Z,2040.00
2022-11-01T08:36:54.395Z,2028.00
2022-11-01T08:37:54.339Z,2066.00
2022-11-01T08:38:54.592Z,2113.00
2022-11-01T08:39:54.351Z,2097.00
2022-11-01T08:40:54.320Z,2133.00
2022-11-01T08:41:54.314Z,2092.00
2022-11-01T08:42:54.302Z,2105.00
2022-11-01T08:43:54.912Z,2189.00
2022-11-01T08:44:54.281Z,2168.00
2022-11-01T08:45:54.271Z,2185.00
2022-11-01T08:46:54.250Z,2200.00
2022-11-01T08:47:54.228Z,2256.00
2022-11-01T08:48:54.423Z,2210.00
2022-11-01T08:49:54.204Z,2227.00
2022-11-01T08:50:54.226Z,2261.00
2022-11-01T08:51:54.193Z,2262.00
2022-11-01T08:52:54.201Z,2308.00
2022-11-01T08:53:54.172Z,2319.00
2022-11-01T08:54:54.194Z,2351.00
2022-11-01T08:55:54.178Z,1650.00
2022-11-01T08:56:54.141Z,4772.00
2022-11-01T08:57:54.124Z,2984.00
2022-11-01T08:58:54.199Z,2279.00
2022-11-01T08:59:54.127Z,3342.00
2022-11-01T09:00:54.156Z,2474.00
2022-11-01T09:01:54.209Z,2248.00
2022-11-01T09:02:54.079Z,3934.00
2022-11-01T09:03:54.065Z,2754.00
2022-11-01T09:04:54.072Z,2576.00
2022-11-01T09:05:54.065Z,2586.00
2022-11-01T09:06:54.053Z,2554.00
2022-11-01T09:07:54.009Z,2624.00
2022-11-01T09:08:54.042Z,2574.00
2022-11-01T09:09:54.026Z,2576.00
2022-11-01T09:10:54.049Z,2631.00
2022-11-01T09:11:53.975Z,2597.00
2022-11-01T09:12:53.986Z,2664.00
2022-11-01T09:13:53.966Z,2729.00
2022-11-01T09:14:53.954Z,2656.00
2022-11-01T09:15:55.349Z,2587.00
2022-11-01T09:16:53.946Z,3012.00
2022-11-01T09:17:53.933Z,2696.00
2022-11-01T09:18:53.897Z,2716.00
2022-11-01T09:19:53.887Z,2720.00
2022-11-01T09:20:59.451Z,2733.00
2022-11-01T09:21:53.878Z,2757.00
2022-11-01T09:22:53.910Z,2764.00
2022-11-01T09:23:53.862Z,2819.00
2022-11-01T09:24:53.864Z,2732.00
2022-11-01T09:25:53.823Z,2740.00
2022-11-01T09:26:53.821Z,2902.00
2022-11-01T09:27:53.840Z,2877.00
2022-11-01T09:28:53.802Z,2784.00
2022-11-01T09:29:53.778Z,2949.00
2022-11-01T09:31:01.405Z,2916.00
2022-11-01T09:31:53.779Z,2925.00
2022-11-01T09:32:53.759Z,2935.00
2022-11-01T09:33:53.753Z,2796.00
2022-11-01T09:34:53.762Z,3028.00
2022-11-01T09:35:59.187Z,3087.00
2022-11-01T09:36:53.742Z,3071.00
2022-11-01T09:37:53.746Z,3089.00
2022-11-01T09:38:53.740Z,1383.00
2022-11-01T09:39:54.214Z,3234.00
2022-11-01T09:40:53.680Z,15093.00
2022-11-01T09:41:53.660Z,15471.00
2022-11-01T09:42:57.808Z,10804.00
2022-11-01T09:43:53.652Z,11510.00
2022-11-01T09:44:53.623Z,11257.00
2022-11-01T09:45:53.615Z,8810.00
2022-11-01T09:46:56.606Z,8324.00
2022-11-01T09:47:53.586Z,4665.00
2022-11-01T09:48:53.681Z,3427.00
2022-11-01T09:49:53.607Z,2297.00
2022-11-01T09:50:53.918Z,5696.00
2022-11-01T09:51:53.545Z,3391.00
2022-11-01T09:52:53.587Z,2752.00
2022-11-01T09:53:53.589Z,5593.00
2022-11-01T09:54:54.427Z,5198.00
2022-11-01T09:55:53.553Z,5686.00
2022-11-01T09:56:53.587Z,3742.00
2022-11-01T09:57:53.483Z,5285.00
2022-11-01T09:58:55.194Z,5490.00
2022-11-01T09:59:53.658Z,1597.00
2022-11-01T10:00:53.532Z,5008.00
2022-11-01T10:01:53.642Z,7641.00
2022-11-01T10:02:53.431Z,11576.00
2022-11-01T10:03:53.435Z,2313.00
2022-11-01T10:04:53.413Z,3421.00
2022-11-01T10:05:53.431Z,18252.00
2022-11-01T10:06:53.389Z,7958.00
2022-11-01T10:07:53.408Z,9249.00
2022-11-01T10:08:53.403Z,16727.00
2022-11-01T10:09:53.412Z,15732.00
2022-11-01T10:10:53.357Z,10359.00
2022-11-01T10:11:53.348Z,10604.00
2022-11-01T10:12:53.338Z,11564.00
2022-11-01T10:13:53.330Z,6343.00
2022-11-01T10:14:53.305Z,4863.00
2022-11-01T10:15:53.340Z,5094.00
2022-11-01T10:16:53.300Z,4433.00
2022-11-01T10:17:53.286Z,2714.00
2022-11-01T10:18:53.699Z,2934.00
2022-11-01T10:19:53.296Z,15896.00
2022-11-01T10:20:53.228Z,18016.00
2022-11-01T10:21:53.257Z,9985.00
2022-11-01T10:22:53.220Z,13703.00
2022-11-01T10:23:53.395Z,15696.00
2022-11-01T10:24:53.194Z,14003.00
2022-11-01T10:25:53.238Z,23162.00
2022-11-01T10:26:53.234Z,17048.00
2022-11-01T10:27:53.165Z,14186.00
2022-11-01T10:28:53.828Z,16368.00
2022-11-01T10:29:53.147Z,9795.00
2022-11-01T10:30:53.148Z,9289.00
2022-11-01T10:31:53.150Z,17672.00
2022-11-01T10:32:53.112Z,12984.00
2022-11-01T10:33:53.108Z,5015.00
2022-11-01T10:34:53.077Z,7522.00
2022-11-01T10:35:53.095Z,8826.00
2022-11-01T10:36:53.140Z,1904.00
2022-11-01T10:38:04.343Z,3711.00
2022-11-01T10:39:55.689Z,21206.00
2022-11-01T10:40:53.055Z,16778.00
2022-11-01T10:41:53.052Z,6005.00
2022-11-01T10:42:53.006Z,4326.00
2022-11-01T10:43:53.015Z,30662.00
2022-11-01T10:44:52.981Z,30615.00
2022-11-01T10:45:52.972Z,21916.00
2022-11-01T10:46:52.975Z,16034.00
2022-11-01T10:47:52.962Z,30109.00
2022-11-01T10:48:52.995Z,36240.00
2022-11-01T10:50:05.508Z,20182.00
2022-11-01T10:50:53.055Z,15845.00
2022-11-01T10:51:52.918Z,73074.00
2022-11-01T10:52:52.910Z,72550.00
2022-11-01T10:53:52.893Z,72803.00
2022-11-01T10:54:52.886Z,74545.00
2022-11-01T10:55:52.877Z,76309.00
2022-11-01T10:56:52.858Z,77015.00
2022-11-01T10:57:52.857Z,75266.00
2022-11-01T10:58:53.790Z,74034.00
2022-11-01T10:59:53.081Z,74027.00
2022-11-01T11:00:52.977Z,73726.00
2022-11-01T11:01:52.941Z,73846.00
2022-11-01T11:02:52.777Z,73365.00
2022-11-01T11:03:52.815Z,73230.00
2022-11-01T11:04:52.809Z,72733.00
2022-11-01T11:05:52.776Z,68561.00
2022-11-01T11:06:52.756Z,31363.00
2022-11-01T11:07:52.764Z,17490.00
2022-11-01T11:08:52.749Z,6164.00
2022-11-01T11:09:52.785Z,15230.00
2022-11-01T11:10:52.734Z,26353.00
2022-11-01T11:11:52.740Z,22675.00
2022-11-01T11:12:52.762Z,6985.00
2022-11-01T11:13:52.700Z,76091.00
2022-11-01T11:14:52.670Z,73649.00
2022-11-01T11:15:52.702Z,65311.00
2022-11-01T11:16:52.666Z,30609.00
2022-11-01T11:17:52.652Z,21029.00
2022-11-01T11:18:52.634Z,11092.00
2022-11-01T11:19:52.624Z,13509.00
2022-11-01T11:20:52.650Z,5731.00
2022-11-01T11:21:52.600Z,4981.00
2022-11-01T11:22:52.612Z,4097.00
2022-11-01T11:23:52.577Z,4282.00
2022-11-01T11:24:52.567Z,4004.00
2022-11-01T11:25:52.559Z,1841.00
2022-11-01T11:26:54.311Z,4549.00
2022-11-01T11:27:52.559Z,67989.00
2022-11-01T11:28:52.543Z,34587.00
2022-11-01T11:29:52.567Z,23151.00
2022-11-01T11:30:52.502Z,4292.00
2022-11-01T11:31:52.517Z,13986.00
2022-11-01T11:32:52.491Z,19536.00
2022-11-01T11:33:52.477Z,19328.00
2022-11-01T11:34:52.469Z,24559.00
2022-11-01T11:35:52.460Z,14568.00
2022-11-01T11:36:52.438Z,6018.00
2022-11-01T11:37:52.475Z,6930.00
2022-11-01T11:38:52.415Z,4177.00
2022-11-01T11:39:52.445Z,4262.00
2022-11-01T11:40:52.406Z,4089.00
2022-11-01T11:41:52.403Z,4277.00
2022-11-01T11:42:52.377Z,4008.00
2022-11-01T11:43:52.388Z,4283.00
2022-11-01T11:44:55.562Z,5855.00
2022-11-01T11:45:52.429Z,1308.00
2022-11-01T11:46:52.326Z,5270.00
2022-11-01T11:47:52.345Z,3766.00
2022-11-01T11:48:52.332Z,2259.00
2022-11-01T11:49:52.305Z,13155.00
2022-11-01T11:50:52.299Z,2581.00
2022-11-01T11:51:52.409Z,9755.00
2022-11-01T11:52:52.260Z,6071.00
2022-11-01T11:53:52.273Z,2093.00
2022-11-01T11:54:52.243Z,12506.00
2022-11-01T11:55:52.252Z,4441.00
2022-11-01T11:56:52.212Z,10498.00
2022-11-01T11:57:52.263Z,2597.00
2022-11-01T11:58:52.207Z,15518.00
2022-11-01T11:59:52.207Z,2086.00
2022-11-01T12:00:52.168Z,3428.00
2022-11-01T12:01:52.301Z,19127.00
2022-11-01T12:02:52.210Z,9569.00
2022-11-01T12:03:52.180Z,14687.00
2022-11-01T12:04:52.155Z,8179.00
2022-11-01T12:05:52.135Z,2625.00
2022-11-01T12:06:52.112Z,21992.00
2022-11-01T12:07:52.143Z,11927.00
2022-11-01T12:08:52.096Z,5737.00
2022-11-01T12:09:52.128Z,7110.00
2022-11-01T12:10:52.072Z,13527.00
2022-11-01T12:11:52.072Z,6169.00
2022-11-01T12:12:52.046Z,9660.00
2022-11-01T12:13:52.079Z,8619.00
2022-11-01T12:14:52.041Z,7106.00
2022-11-01T12:15:52.099Z,5349.00
2022-11-01T12:16:52.065Z,5782.00
2022-11-01T12:17:52.012Z,5392.00
2022-11-01T12:18:52.861Z,7606.00
2022-11-01T12:19:51.997Z,2258.00
2022-11-01T12:20:51.964Z,15276.00
2022-11-01T12:21:51.958Z,9687.00
2022-11-01T12:22:51.940Z,5372.00
2022-11-01T12:23:51.943Z,5948.00
2022-11-01T12:24:51.949Z,5822.00
2022-11-01T12:25:51.920Z,4443.00
2022-11-01T12:26:51.886Z,4265.00
2022-11-01T12:27:51.895Z,4093.00
2022-11-01T12:28:51.885Z,6806.00
2022-11-01T12:29:51.898Z,5451.00
2022-11-01T12:30:51.896Z,2750.00
2022-11-01T12:31:51.847Z,3374.00
2022-11-01T12:32:52.140Z,20043.00
2022-11-01T12:33:51.839Z,45114.00
2022-11-01T12:34:51.849Z,32326.00
2022-11-01T12:35:51.804Z,15787.00
2022-11-01T12:36:51.811Z,9795.00
2022-11-01T12:37:51.787Z,5447.00
2022-11-01T12:38:51.764Z,4651.00
2022-11-01T12:39:52.177Z,4342.00
2022-11-01T12:40:51.765Z,2121.00
2022-11-01T12:41:51.756Z,9405.00